createdAt,value
2022-08-05T00:00:18.467Z,95484.72
2022-08-05T00:02:51.329Z,95484.41
2022-08-05T00:06:01.666Z,95481.66
2022-08-05T00:08:33.024Z,95482.34
2022-08-05T00:10:52.650Z,95487.09
2022-08-05T00:13:19.791Z,95472.31
2022-08-05T00:15:58.024Z,95472.94
2022-08-05T00:18:25.765Z,95476.03
2022-08-05T00:20:55.230Z,95478.06
2022-08-05T00:23:44.651Z,95468.63
2022-08-05T00:26:09.745Z,95476.03
2022-08-05T00:28:36.746Z,95479.03
2022-08-05T00:31:04.629Z,95474.03
2022-08-05T00:34:56.202Z,95476.59
2022-08-05T00:37:10.690Z,95475.28
2022-08-05T00:39:13.397Z,95483.56
2022-08-05T00:41:52.188Z,95485.88
2022-08-05T00:44:23.343Z,95486.56
2022-08-05T00:47:01.837Z,95493.38
2022-08-05T00:49:32.815Z,95484.16
2022-08-05T00:52:10.941Z,95485.03
2022-08-05T00:54:38.609Z,95489.25
2022-08-05T00:57:05.120Z,95478.09
2022-08-05T00:59:42.028Z,95480.03
2022-08-05T01:02:11.362Z,95476.94
2022-08-05T01:04:37.835Z,95479.66
2022-08-05T01:07:13.713Z,95489.09
2022-08-05T01:09:40.821Z,95476.44
2022-08-05T01:12:18.146Z,95471.34
2022-08-05T01:14:59.364Z,95469.88
2022-08-05T01:17:53.670Z,95469.00
2022-08-05T01:20:39.425Z,95468.25
2022-08-05T01:23:43.822Z,95468.59
2022-08-05T01:26:40.312Z,95467.56
2022-08-05T01:29:34.968Z,95467.34
2022-08-05T01:32:06.329Z,95470.00
2022-08-05T01:34:45.725Z,95458.34
2022-08-05T01:37:25.260Z,95455.38
2022-08-05T01:39:58.911Z,95455.72
2022-08-05T01:42:29.638Z,95461.56
2022-08-05T01:45:00.290Z,95455.88
2022-08-05T01:47:39.537Z,95458.91
2022-08-05T01:50:15.725Z,95462.13
2022-08-05T01:52:49.621Z,95455.97
2022-08-05T01:55:20.403Z,95461.69
2022-08-05T01:58:11.343Z,95459.97
2022-08-05T02:00:41.520Z,95463.53
2022-08-05T02:03:24.247Z,95445.91
2022-08-05T02:05:59.795Z,95453.97
2022-08-05T02:08:30.759Z,95451.78
2022-08-05T02:11:08.226Z,95458.34
2022-08-05T02:13:53.753Z,95457.47
2022-08-05T02:16:38.786Z,95458.13
2022-08-05T02:19:15.964Z,95454.88
2022-08-05T02:21:54.104Z,95450.97
2022-08-05T02:24:27.435Z,95456.00
2022-08-05T02:27:09.984Z,95454.16
2022-08-05T02:29:58.921Z,95463.84
2022-08-05T02:32:31.630Z,95457.94
2022-08-05T02:35:13.674Z,95455.03
2022-08-05T02:37:47.634Z,95458.28
2022-08-05T02:40:21.300Z,95456.06
2022-08-05T02:42:52.972Z,95460.84
2022-08-05T02:45:24.108Z,95459.78
2022-08-05T02:48:07.341Z,95467.28
2022-08-05T02:50:42.107Z,95464.25
2022-08-05T02:53:18.955Z,95466.19
2022-08-05T02:55:52.133Z,95460.75
2022-08-05T02:58:27.461Z,95458.28
2022-08-05T03:00:58.625Z,95460.69
2022-08-05T03:03:33.923Z,95467.34
2022-08-05T03:06:55.566Z,95465.75
2022-08-05T03:09:04.556Z,95467.56
2022-08-05T03:11:56.372Z,95464.84
2022-08-05T03:14:17.644Z,95459.44
2022-08-05T03:16:44.154Z,95455.09
2022-08-05T03:19:16.855Z,95459.09
2022-08-05T03:21:57.060Z,95453.09
2022-08-05T03:24:29.824Z,95458.63
2022-08-05T03:26:56.924Z,95461.84
2022-08-05T03:29:24.205Z,95453.97
2022-08-05T03:32:11.177Z,95456.22
2022-08-05T03:34:38.245Z,95454.94
2022-08-05T03:37:06.346Z,95457.00
2022-08-05T03:39:38.136Z,95457.16
2022-08-05T03:42:13.703Z,95456.78
2022-08-05T03:44:42.358Z,95454.16
2022-08-05T03:47:08.665Z,95446.84
2022-08-05T03:49:51.469Z,95462.53
2022-08-05T03:52:39.331Z,95460.91
2022-08-05T03:56:04.782Z,95448.25
2022-08-05T03:58:12.164Z,95457.59
2022-08-05T04:00:42.074Z,95456.56
2022-08-05T04:03:15.021Z,95456.56
2022-08-05T04:05:54.804Z,95453.88
2022-08-05T04:08:35.033Z,95449.56
2022-08-05T04:11:06.675Z,95451.72
2022-08-05T04:13:55.237Z,95458.91
2022-08-05T04:16:25.112Z,95459.28
2022-08-05T04:18:57.930Z,95445.84
2022-08-05T04:22:10.247Z,95455.38
2022-08-05T04:24:14.232Z,95457.69
2022-08-05T04:26:46.714Z,95452.38
2022-08-05T04:29:13.265Z,95456.25
2022-08-05T04:31:40.691Z,95448.19
2022-08-05T04:34:19.047Z,95459.09
2022-08-05T04:36:53.471Z,95459.69
2022-08-05T04:39:20.576Z,95459.63
2022-08-05T04:41:48.454Z,95475.31
2022-08-05T04:44:16.145Z,95462.00
2022-08-05T04:46:48.479Z,95469.25
2022-08-05T04:49:15.214Z,95475.47
2022-08-05T04:51:43.630Z,95479.50
2022-08-05T04:54:10.174Z,95488.75
2022-08-05T04:56:38.403Z,95488.22
2022-08-05T04:59:21.737Z,95494.72
2022-08-05T05:02:35.101Z,95486.88
2022-08-05T05:04:43.758Z,95488.19
2022-08-05T05:07:10.716Z,95489.84
2022-08-05T05:09:37.433Z,95488.59
2022-08-05T05:12:06.294Z,95488.06
2022-08-05T05:14:36.246Z,95493.47
2022-08-05T05:17:03.389Z,95492.06
2022-08-05T05:19:36.918Z,95493.00
2022-08-05T05:22:24.031Z,95497.53
2022-08-05T05:24:57.572Z,95496.38
2022-08-05T05:27:45.349Z,95495.31
2022-08-05T05:30:31.108Z,95495.41
2022-08-05T05:33:08.864Z,95498.66
2022-08-05T05:35:44.452Z,95501.19
2022-08-05T05:38:13.146Z,95503.69
2022-08-05T05:40:48.328Z,95504.44
2022-08-05T05:43:21.882Z,95511.72
2022-08-05T05:46:05.137Z,95504.38
2022-08-05T05:48:34.581Z,95511.63
2022-08-05T05:51:14.993Z,95516.41
2022-08-05T05:53:54.362Z,95516.94
2022-08-05T05:56:32.862Z,95531.91
2022-08-05T05:59:03.614Z,95529.72
2022-08-05T06:01:37.170Z,95528.84
2022-08-05T06:04:11.403Z,95534.59
2022-08-05T06:06:41.978Z,95531.25
2022-08-05T06:09:09.514Z,95528.00
2022-08-05T06:11:48.854Z,95522.53
2022-08-05T06:14:27.998Z,95523.91
2022-08-05T06:16:55.246Z,95526.81
2022-08-05T06:19:26.107Z,95525.91
2022-08-05T06:22:01.999Z,95537.63
2022-08-05T06:24:28.335Z,95539.44
2022-08-05T06:26:55.481Z,95548.41
2022-08-05T06:29:43.194Z,95540.06
2022-08-05T06:32:25.609Z,95546.38
2022-08-05T06:34:57.241Z,95539.56
2022-08-05T06:37:56.894Z,95544.75
2022-08-05T06:40:12.879Z,95544.78
2022-08-05T06:42:40.559Z,95549.03
2022-08-05T06:45:08.505Z,95550.28
2022-08-05T06:48:36.901Z,95551.44
2022-08-05T06:50:22.573Z,95550.91
2022-08-05T06:52:58.742Z,95550.66
2022-08-05T06:55:36.154Z,95552.13
2022-08-05T06:58:29.049Z,95557.25
2022-08-05T07:00:49.928Z,95551.81
2022-08-05T07:03:17.082Z,95543.06
2022-08-05T07:05:43.873Z,95556.69
2022-08-05T07:08:12.651Z,95556.75
2022-08-05T07:10:39.798Z,95558.63
2022-08-05T07:13:58.303Z,95559.00
2022-08-05T07:16:07.045Z,95562.69
2022-08-05T07:18:38.449Z,95564.84
2022-08-05T07:21:14.158Z,95561.88
2022-08-05T07:32:11.875Z,95563.91
2022-08-05T07:34:42.482Z,95562.75
2022-08-05T07:37:11.749Z,95567.44
2022-08-05T07:40:04.759Z,95565.97
2022-08-05T07:42:33.490Z,95570.38
2022-08-05T07:45:00.710Z,95572.13
2022-08-05T07:47:27.133Z,95575.00
2022-08-05T07:50:10.039Z,95572.88
2022-08-05T07:52:43.589Z,95581.13
2022-08-05T07:55:44.526Z,95569.94
2022-08-05T07:58:03.090Z,95576.31
2022-08-05T08:00:30.535Z,95581.16
2022-08-05T08:03:15.033Z,95578.56
2022-08-05T08:05:49.680Z,95573.66
2022-08-05T08:08:17.041Z,95579.75
2022-08-05T08:10:48.722Z,95580.63
2022-08-05T08:13:15.574Z,95583.56
2022-08-05T08:16:34.309Z,95579.59
2022-08-05T08:18:35.060Z,95574.78
2022-08-05T08:21:09.835Z,95577.66
2022-08-05T08:24:01.606Z,95577.13
2022-08-05T08:26:29.906Z,95578.91
2022-08-05T08:29:02.086Z,95585.31
2022-08-05T08:31:36.143Z,95586.53
2022-08-05T08:34:02.748Z,95578.53
2022-08-05T08:36:47.642Z,95587.66
2022-08-05T08:39:19.498Z,95586.47
2022-08-05T08:41:52.086Z,95597.50
2022-08-05T08:45:16.608Z,95589.50
2022-08-05T08:48:05.651Z,95594.19
2022-08-05T08:50:30.651Z,95593.00
2022-08-05T08:53:08.142Z,95592.59
2022-08-05T08:56:04.459Z,95596.16
2022-08-05T08:58:37.609Z,95595.41
2022-08-05T09:01:17.255Z,95599.88
2022-08-05T09:03:55.402Z,95601.50
2022-08-05T09:06:29.288Z,95599.50
2022-08-05T09:08:58.479Z,95603.13
2022-08-05T09:11:51.202Z,95598.13
2022-08-05T09:14:58.480Z,95590.66
2022-08-05T09:17:00.206Z,95591.03
2022-08-05T09:19:27.832Z,95595.78
2022-08-05T09:22:23.171Z,95588.91
2022-08-05T09:25:13.704Z,95588.31
2022-08-05T09:28:03.934Z,95583.09
2022-08-05T09:30:34.468Z,95584.47
2022-08-05T09:33:04.803Z,95588.22
2022-08-05T09:35:31.754Z,95592.16
2022-08-05T09:38:12.983Z,95587.53
2022-08-05T09:40:53.687Z,95579.97
2022-08-05T09:43:41.958Z,95581.19
2022-08-05T09:46:27.257Z,95584.69
2022-08-05T09:49:06.839Z,95581.81
2022-08-05T09:51:48.851Z,95587.72
2022-08-05T09:54:29.553Z,95588.03
2022-08-05T09:56:57.673Z,95583.16
2022-08-05T09:59:27.969Z,95581.34
2022-08-05T10:01:57.983Z,95579.72
2022-08-05T10:04:36.020Z,95575.59
2022-08-05T10:07:14.107Z,95570.44
2022-08-05T10:10:14.443Z,95571.84
2022-08-05T10:12:49.496Z,95565.34
2022-08-05T10:15:20.419Z,95561.09
2022-08-05T10:18:11.772Z,95555.53
2022-08-05T10:20:48.551Z,95550.03
2022-08-05T10:23:34.277Z,95546.00
2022-08-05T10:26:13.958Z,95546.88
2022-08-05T10:28:43.368Z,95550.44
2022-08-05T10:32:48.003Z,95546.63
2022-08-05T10:34:01.009Z,95549.34
2022-08-05T10:36:28.386Z,95539.75
2022-08-05T10:39:05.041Z,95542.28
2022-08-05T10:42:00.467Z,95540.84
2022-08-05T10:44:29.244Z,95538.75
2022-08-05T10:46:57.506Z,95540.78
2022-08-05T10:49:27.414Z,95528.75
2022-08-05T10:52:00.357Z,95533.53
2022-08-05T10:55:02.511Z,95529.91
2022-08-05T10:57:31.876Z,95526.06
2022-08-05T11:00:22.858Z,95524.94
2022-08-05T11:03:24.646Z,95525.25
2022-08-05T11:06:15.048Z,95529.25
2022-08-05T11:09:16.834Z,95522.47
2022-08-05T11:11:53.646Z,95520.69
2022-08-05T11:14:57.446Z,95518.25
2022-08-05T11:17:59.654Z,95515.56
2022-08-05T11:20:39.148Z,95517.19
2022-08-05T11:23:33.712Z,95507.88
2022-08-05T11:26:16.741Z,95510.28
2022-08-05T11:28:58.065Z,95514.66
2022-08-05T11:31:56.713Z,95506.00
2022-08-05T11:34:39.555Z,95504.75
2022-08-05T11:38:26.269Z,95507.25
2022-08-05T11:40:00.536Z,95500.97
2022-08-05T11:42:32.653Z,95490.28
2022-08-05T11:45:14.329Z,95500.97
2022-08-05T11:47:54.811Z,95500.22
2022-08-05T11:50:21.644Z,95495.13
2022-08-05T11:52:50.241Z,95490.75
2022-08-05T11:55:18.527Z,95485.59
2022-08-05T11:58:10.968Z,95482.41
2022-08-05T12:00:38.363Z,95486.41
2022-08-05T12:03:28.797Z,95484.09
2022-08-05T12:06:06.160Z,95479.69
2022-08-05T12:08:48.016Z,95476.22
2022-08-05T12:11:40.229Z,95477.06
2022-08-05T12:14:10.346Z,95473.53
2022-08-05T12:16:45.514Z,95477.38
2022-08-05T12:20:27.852Z,95468.06
2022-08-05T12:22:01.525Z,95461.19
2022-08-05T12:24:28.032Z,95467.78
2022-08-05T12:26:54.732Z,95470.09
2022-08-05T12:29:24.378Z,95469.00
2022-08-05T12:31:54.335Z,95462.22
2022-08-05T12:34:31.020Z,95458.28
2022-08-05T12:37:03.287Z,95462.22
2022-08-05T12:39:34.694Z,95452.19
2022-08-05T12:42:16.132Z,95442.63
2022-08-05T12:44:45.240Z,95447.13
2022-08-05T12:47:28.816Z,95446.97
2022-08-05T12:50:05.336Z,95435.06
2022-08-05T12:52:39.167Z,95433.31
2022-08-05T12:55:25.885Z,95427.53
2022-08-05T12:58:50.751Z,95428.59
2022-08-05T13:02:04.166Z,95424.28
2022-08-05T13:03:34.325Z,95410.25
2022-08-05T13:06:08.149Z,95415.22
2022-08-05T13:08:38.798Z,95413.09
2022-08-05T13:11:07.132Z,95403.16
2022-08-05T13:14:05.398Z,95402.94
2022-08-05T13:16:25.259Z,95396.25
2022-08-05T13:18:57.892Z,95399.16
2022-08-05T13:21:27.787Z,95396.09
2022-08-05T13:23:55.636Z,95395.00
2022-08-05T13:26:30.240Z,95386.97
2022-08-05T13:28:57.146Z,95389.78
2022-08-05T13:32:02.795Z,95389.53
2022-08-05T13:34:21.274Z,95385.88
2022-08-05T13:36:50.015Z,95380.28
2022-08-05T13:39:24.443Z,95376.84
2022-08-05T13:42:02.878Z,95379.06
2022-08-05T13:44:29.363Z,95370.81
2022-08-05T13:47:02.391Z,95370.69
2022-08-05T13:49:35.271Z,95368.97
2022-08-05T13:52:19.152Z,95377.28
2022-08-05T13:54:57.287Z,95374.13
2022-08-05T13:57:26.018Z,95381.31
2022-08-05T14:00:12.523Z,95380.22
2022-08-05T14:02:39.461Z,95385.44
2022-08-05T14:05:05.949Z,95380.66
2022-08-05T14:08:00.725Z,95382.78
2022-08-05T14:10:28.208Z,95377.56
2022-08-05T14:12:55.762Z,95376.22
2022-08-05T14:16:07.267Z,95375.84
2022-08-05T14:18:14.924Z,95379.25
2022-08-05T14:20:46.927Z,95377.75
2022-08-05T14:23:14.006Z,95373.19
2022-08-05T14:25:47.467Z,95363.38
2022-08-05T14:28:26.413Z,95370.63
2022-08-05T14:30:54.373Z,95358.03
2022-08-05T14:33:22.772Z,95371.09
2022-08-05T14:35:52.094Z,95376.50
2022-08-05T14:38:33.274Z,95380.22
2022-08-05T14:41:05.997Z,95386.91
2022-08-05T14:43:58.911Z,95375.63
2022-08-05T14:46:21.003Z,95379.91
2022-08-05T14:48:49.333Z,95378.44
2022-08-05T14:51:17.679Z,95377.03
2022-08-05T14:53:45.222Z,95383.63
2022-08-05T14:56:31.633Z,95373.16
2022-08-05T14:58:58.008Z,95373.94
2022-08-05T15:01:48.573Z,95381.72
2022-08-05T15:04:11.567Z,95373.63
2022-08-05T15:09:52.462Z,95368.22
2022-08-05T15:36:36.482Z,95385.81
2022-08-05T16:12:15.127Z,95384.66
2022-08-05T16:42:13.615Z,95428.00
2022-08-05T16:48:07.950Z,95430.38
2022-08-05T16:50:45.803Z,95428.91
2022-08-05T16:53:22.840Z,95444.53
2022-08-05T16:56:01.459Z,95443.41
2022-08-05T16:58:28.990Z,95475.47
2022-08-05T17:00:56.801Z,95482.09
2022-08-05T17:03:25.830Z,95500.16
2022-08-05T17:08:36.134Z,95537.88
2022-08-05T17:11:16.974Z,95535.88
2022-08-05T17:13:44.654Z,95538.59
2022-08-05T17:16:33.702Z,95532.94
2022-08-05T17:18:58.000Z,95555.13
2022-08-05T17:21:24.317Z,95550.53
2022-08-05T17:24:05.965Z,95567.75
2022-08-05T17:26:38.377Z,95587.06
2022-08-05T17:29:04.977Z,95589.66
2022-08-05T17:31:41.504Z,95571.75
2022-08-05T17:34:30.156Z,95582.34
2022-08-05T17:36:59.719Z,95607.31
2022-08-05T17:39:33.574Z,95628.09
2022-08-05T17:42:19.608Z,95640.09
2022-08-05T17:44:50.507Z,95646.38
2022-08-05T17:47:22.116Z,95643.81
2022-08-05T17:50:00.247Z,95641.53
2022-08-05T17:52:34.211Z,95645.72
2022-08-05T17:55:03.081Z,95646.22
2022-08-05T17:57:29.832Z,95657.88
2022-08-05T18:00:05.307Z,95674.53
2022-08-05T18:02:33.251Z,95675.47
2022-08-05T18:05:01.194Z,95676.28
2022-08-05T18:07:40.975Z,95671.34
2022-08-05T18:10:10.385Z,95681.72
2022-08-05T18:12:37.235Z,95670.06
2022-08-05T18:15:04.123Z,95680.03
2022-08-05T18:18:00.281Z,95688.53
2022-08-05T18:20:18.221Z,95678.50
2022-08-05T18:22:54.686Z,95689.16
2022-08-05T18:25:33.106Z,95703.03
2022-08-05T18:27:59.947Z,95718.63
2022-08-05T18:30:31.257Z,95718.56
2022-08-05T18:33:00.865Z,95725.25
2022-08-05T18:36:00.723Z,95717.25
2022-08-05T18:38:19.123Z,95720.03
2022-08-05T18:41:54.957Z,95728.69
2022-08-05T18:43:42.564Z,95736.19
2022-08-05T18:46:10.183Z,95721.72
2022-08-05T18:48:41.852Z,95735.22
2022-08-05T18:52:04.796Z,95751.59
2022-08-05T18:53:55.784Z,95744.41
2022-08-05T18:56:25.337Z,95761.97
2022-08-05T18:58:54.805Z,95757.91
2022-08-05T19:01:47.760Z,95760.06
2022-08-05T19:04:14.525Z,95762.53
2022-08-05T19:06:50.695Z,95766.84
2022-08-05T19:09:17.160Z,95779.28
2022-08-05T19:12:01.139Z,95783.06
2022-08-05T19:14:53.434Z,95790.09
2022-08-05T19:17:16.790Z,95793.88
2022-08-05T19:19:46.500Z,95808.41
2022-08-05T19:22:17.651Z,95814.91
2022-08-05T19:24:54.509Z,95817.00
2022-08-05T19:27:23.939Z,95828.13
2022-08-05T19:29:50.560Z,95834.94
2022-08-05T19:32:17.241Z,95837.09
2022-08-05T19:34:55.011Z,95845.16
2022-08-05T19:37:34.870Z,95839.72
2022-08-05T19:40:10.670Z,95842.38
2022-08-05T19:42:37.370Z,95854.91
2022-08-05T19:45:06.775Z,95846.19
2022-08-05T19:47:34.921Z,95846.94
2022-08-05T19:50:06.214Z,95845.16
2022-08-05T19:52:34.408Z,95841.38
2022-08-05T19:55:06.754Z,95834.41
2022-08-05T19:57:57.239Z,95836.00
2022-08-05T20:00:25.450Z,95836.56
2022-08-05T20:02:52.501Z,95847.91
2022-08-05T20:05:24.456Z,95848.19
2022-08-05T20:07:59.030Z,95843.31
2022-08-05T20:10:31.284Z,95860.34
2022-08-05T20:13:01.430Z,95867.34
2022-08-05T20:15:52.702Z,95867.09
2022-08-05T20:18:33.606Z,95879.81
2022-08-05T20:21:01.185Z,95873.34
2022-08-05T20:23:40.342Z,95877.38
2022-08-05T20:26:16.105Z,95872.22
2022-08-05T20:28:45.076Z,95873.00
2022-08-05T20:31:16.522Z,95873.44
2022-08-05T20:33:49.817Z,95881.75
2022-08-05T20:36:19.181Z,95888.13
2022-08-05T20:38:54.487Z,95889.75
2022-08-05T20:41:43.931Z,95895.44
2022-08-05T20:44:18.371Z,95891.91
2022-08-05T20:46:50.455Z,95892.09
2022-08-05T20:49:24.079Z,95902.78
2022-08-05T20:51:54.132Z,95912.06
2022-08-05T20:54:24.719Z,95921.06
2022-08-05T20:56:54.477Z,95924.69
2022-08-05T20:59:26.434Z,95925.56
2022-08-05T21:01:57.352Z,95921.69
2022-08-05T21:04:28.451Z,95938.31
2022-08-05T21:06:58.346Z,95952.72
2022-08-05T21:12:08.184Z,95947.75
2022-08-05T21:14:38.309Z,95947.81
2022-08-05T21:17:06.194Z,95953.31
2022-08-05T21:19:46.916Z,95958.09
2022-08-05T21:22:21.751Z,95962.19
2022-08-05T21:24:54.909Z,95956.91
2022-08-05T21:29:57.545Z,95966.53
2022-08-05T21:41:06.168Z,95961.06
2022-08-05T21:43:41.755Z,95952.97
2022-08-05T21:46:08.826Z,95942.13
2022-08-05T21:48:38.755Z,95945.13
2022-08-05T21:52:15.358Z,95932.88
2022-08-05T21:56:44.532Z,95935.34
2022-08-05T21:59:24.262Z,95934.03
2022-08-05T22:01:54.456Z,95928.53
2022-08-05T22:04:25.237Z,95932.94
2022-08-05T22:07:00.095Z,95923.16
2022-08-05T22:09:45.884Z,95932.63
2022-08-05T22:12:17.586Z,95938.31
2022-08-05T22:17:59.946Z,95934.50
2022-08-05T22:20:27.371Z,95935.06
2022-08-05T22:22:55.650Z,95932.88
2022-08-05T22:25:31.105Z,95929.13
2022-08-05T22:28:13.761Z,95934.00
2022-08-05T22:30:44.031Z,95937.22
2022-08-05T22:33:57.633Z,95928.59
2022-08-05T22:36:14.724Z,95924.03
2022-08-05T22:38:43.382Z,95921.13
2022-08-05T22:43:57.918Z,95920.59
2022-08-05T22:46:25.860Z,95919.50
2022-08-05T22:48:53.023Z,95923.59
2022-08-05T22:54:08.543Z,95922.53
2022-08-05T22:56:35.250Z,95927.38
2022-08-05T22:59:45.191Z,95929.81
2022-08-05T23:13:07.359Z,95918.66
2022-08-05T23:18:16.015Z,95910.38
2022-08-05T23:20:43.435Z,95914.59
2022-08-05T23:23:10.182Z,95917.03
2022-08-05T23:28:29.481Z,95920.94
2022-08-05T23:31:07.042Z,95922.56
2022-08-05T23:34:04.760Z,95917.09
2022-08-05T23:36:38.512Z,95907.41
2022-08-05T23:39:09.482Z,95901.34
2022-08-05T23:41:41.094Z,95893.38
2022-08-05T23:44:15.560Z,95889.13
2022-08-05T23:46:46.032Z,95899.88
2022-08-05T23:49:16.794Z,95901.97
2022-08-05T23:51:53.414Z,95900.91
2022-08-05T23:54:34.173Z,95899.31
2022-08-05T23:57:05.885Z,95898.75
2022-08-05T23:59:37.683Z,95898.91
